sensor_id;sensor_type;location;lat;lon;timestamp;temperature;humidity
35495;DHT22;75532;49.300;6.846;2024-02-15T00:01:49;21.70;50.10
35495;DHT22;75532;49.300;6.846;2024-02-15T00:04:49;21.70;50.10
35495;DHT22;75532;49.300;6.846;2024-02-15T00:07:50;21.70;50.00
35495;DHT22;75532;49.300;6.846;2024-02-15T00:10:50;21.70;50.00
35495;DHT22;75532;49.300;6.846;2024-02-15T00:13:51;21.70;50.10
35495;DHT22;75532;49.300;6.846;2024-02-15T00:16:51;21.70;50.00
35495;DHT22;75532;49.300;6.846;2024-02-15T00:19:52;21.70;49.90
35495;DHT22;75532;49.300;6.846;2024-02-15T00:22:53;21.70;50.00
35495;DHT22;75532;49.300;6.846;2024-02-15T00:25:53;21.70;50.00
35495;DHT22;75532;49.300;6.846;2024-02-15T00:28:54;21.70;49.90
35495;DHT22;75532;49.300;6.846;2024-02-15T00:31:54;21.70;49.90
35495;DHT22;75532;49.300;6.846;2024-02-15T00:34:55;21.70;49.90
35495;DHT22;75532;49.300;6.846;2024-02-15T00:37:56;21.70;49.90
35495;DHT22;75532;49.300;6.846;2024-02-15T00:40:58;21.70;50.00
35495;DHT22;75532;49.300;6.846;2024-02-15T00:43:59;21.70;50.00
35495;DHT22;75532;49.300;6.846;2024-02-15T00:47:00;21.70;49.90
35495;DHT22;75532;49.300;6.846;2024-02-15T00:50:01;21.70;49.90
35495;DHT22;75532;49.300;6.846;2024-02-15T00:53:01;21.70;50.00
35495;DHT22;75532;49.300;6.846;2024-02-15T00:56:02;21.70;50.10
35495;DHT22;75532;49.300;6.846;2024-02-15T00:59:03;21.70;49.90
35495;DHT22;75532;49.300;6.846;2024-02-15T01:02:04;21.70;49.90
35495;DHT22;75532;49.300;6.846;2024-02-15T01:05:05;21.70;50.10
35495;DHT22;75532;49.300;6.846;2024-02-15T01:08:06;21.70;50.00
35495;DHT22;75532;49.300;6.846;2024-02-15T01:11:07;21.60;49.90
35495;DHT22;75532;49.300;6.846;2024-02-15T01:18:04;21.60;50.00
35495;DHT22;75532;49.300;6.846;2024-02-15T01:21:05;21.60;49.90
35495;DHT22;75532;49.300;6.846;2024-02-15T01:24:06;21.60;49.90
35495;DHT22;75532;49.300;6.846;2024-02-15T01:27:07;21.60;49.80
35495;DHT22;75532;49.300;6.846;2024-02-15T01:30:08;21.60;49.70
35495;DHT22;75532;49.300;6.846;2024-02-15T01:33:09;21.60;49.80
35495;DHT22;75532;49.300;6.846;2024-02-15T01:36:14;21.60;49.70
35495;DHT22;75532;49.300;6.846;2024-02-15T01:39:16;21.60;49.80
35495;DHT22;75532;49.300;6.846;2024-02-15T01:42:16;21.60;50.20
35495;DHT22;75532;49.300;6.846;2024-02-15T01:45:17;21.60;49.80
35495;DHT22;75532;49.300;6.846;2024-02-15T01:48:18;21.60;49.70
35495;DHT22;75532;49.300;6.846;2024-02-15T01:51:18;21.60;49.80
35495;DHT22;75532;49.300;6.846;2024-02-15T01:54:19;21.60;49.80
35495;DHT22;75532;49.300;6.846;2024-02-15T01:57:20;21.60;49.60
35495;DHT22;75532;49.300;6.846;2024-02-15T02:00:21;21.60;49.70
35495;DHT22;75532;49.300;6.846;2024-02-15T02:03:22;21.60;49.70
35495;DHT22;75532;49.300;6.846;2024-02-15T02:06:23;21.60;49.70
35495;DHT22;75532;49.300;6.846;2024-02-15T02:09:24;21.60;49.70
35495;DHT22;75532;49.300;6.846;2024-02-15T02:12:25;21.60;49.60
35495;DHT22;75532;49.300;6.846;2024-02-15T02:15:28;21.60;49.60
35495;DHT22;75532;49.300;6.846;2024-02-15T02:18:29;21.60;49.50
35495;DHT22;75532;49.300;6.846;2024-02-15T02:21:29;21.60;49.50
35495;DHT22;75532;49.300;6.846;2024-02-15T02:24:31;21.60;49.50
35495;DHT22;75532;49.300;6.846;2024-02-15T02:27:37;21.60;49.40
35495;DHT22;75532;49.300;6.846;2024-02-15T02:30:38;21.60;49.50
35495;DHT22;75532;49.300;6.846;2024-02-15T02:33:41;21.60;49.50
35495;DHT22;75532;49.300;6.846;2024-02-15T02:36:45;21.60;49.30
35495;DHT22;75532;49.300;6.846;2024-02-15T02:39:48;21.60;49.50
35495;DHT22;75532;49.300;6.846;2024-02-15T02:45:50;21.50;49.60
35495;DHT22;75532;49.300;6.846;2024-02-15T02:48:51;21.60;50.00
35495;DHT22;75532;49.300;6.846;2024-02-15T02:51:52;21.60;49.80
35495;DHT22;75532;49.300;6.846;2024-02-15T02:54:52;21.60;49.50
35495;DHT22;75532;49.300;6.846;2024-02-15T02:57:53;21.60;49.40
35495;DHT22;75532;49.300;6.846;2024-02-15T03:00:55;21.60;49.40
35495;DHT22;75532;49.300;6.846;2024-02-15T03:03:56;21.60;49.30
35495;DHT22;75532;49.300;6.846;2024-02-15T03:06:56;21.60;49.30
35495;DHT22;75532;49.300;6.846;2024-02-15T03:09:58;21.60;49.30
35495;DHT22;75532;49.300;6.846;2024-02-15T03:12:58;21.60;49.30
35495;DHT22;75532;49.300;6.846;2024-02-15T03:15:59;21.60;49.30
35495;DHT22;75532;49.300;6.846;2024-02-15T03:19:00;21.60;49.20
35495;DHT22;75532;49.300;6.846;2024-02-15T03:22:05;21.60;49.20
35495;DHT22;75532;49.300;6.846;2024-02-15T03:25:06;21.70;49.30
35495;DHT22;75532;49.300;6.846;2024-02-15T03:28:08;21.60;49.20
35495;DHT22;75532;49.300;6.846;2024-02-15T03:31:08;21.60;49.20
35495;DHT22;75532;49.300;6.846;2024-02-15T03:34:09;21.60;49.30
35495;DHT22;75532;49.300;6.846;2024-02-15T03:37:11;21.60;49.20
35495;DHT22;75532;49.300;6.846;2024-02-15T03:40:11;21.60;49.20
35495;DHT22;75532;49.300;6.846;2024-02-15T03:43:12;21.60;49.20
35495;DHT22;75532;49.300;6.846;2024-02-15T03:46:13;21.60;49.30
35495;DHT22;75532;49.300;6.846;2024-02-15T03:49:14;21.60;49.20
35495;DHT22;75532;49.300;6.846;2024-02-15T03:52:16;21.60;49.40
35495;DHT22;75532;49.300;6.846;2024-02-15T03:55:16;21.60;49.20
35495;DHT22;75532;49.300;6.846;2024-02-15T03:58:17;21.60;49.40
35495;DHT22;75532;49.300;6.846;2024-02-15T04:01:17;21.60;49.40
35495;DHT22;75532;49.300;6.846;2024-02-15T04:04:18;21.60;49.60
35495;DHT22;75532;49.300;6.846;2024-02-15T04:07:22;21.60;49.60
35495;DHT22;75532;49.300;6.846;2024-02-15T04:10:22;21.60;49.60
35495;DHT22;75532;49.300;6.846;2024-02-15T04:13:23;21.60;49.50
35495;DHT22;75532;49.300;6.846;2024-02-15T04:16:24;21.60;49.50
35495;DHT22;75532;49.300;6.846;2024-02-15T04:19:26;21.60;49.50
35495;DHT22;75532;49.300;6.846;2024-02-15T04:22:26;21.60;49.50
35495;DHT22;75532;49.300;6.846;2024-02-15T04:25:27;21.60;49.30
35495;DHT22;75532;49.300;6.846;2024-02-15T04:28:28;21.60;49.20
35495;DHT22;75532;49.300;6.846;2024-02-15T04:31:32;21.60;49.20
35495;DHT22;75532;49.300;6.846;2024-02-15T04:34:37;21.60;49.10
35495;DHT22;75532;49.300;6.846;2024-02-15T04:37:38;21.60;49.20
35495;DHT22;75532;49.300;6.846;2024-02-15T04:40:38;21.60;49.10
35495;DHT22;75532;49.300;6.846;2024-02-15T04:43:39;21.60;49.20
35495;DHT22;75532;49.300;6.846;2024-02-15T04:46:41;21.70;49.30
35495;DHT22;75532;49.300;6.846;2024-02-15T04:49:43;21.60;49.50
35495;DHT22;75532;49.300;6.846;2024-02-15T04:52:44;21.60;49.30
35495;DHT22;75532;49.300;6.846;2024-02-15T04:55:48;21.60;49.10
35495;DHT22;75532;49.300;6.846;2024-02-15T04:58:49;21.60;49.00
35495;DHT22;75532;49.300;6.846;2024-02-15T05:01:52;21.60;49.00
35495;DHT22;75532;49.300;6.846;2024-02-15T05:04:53;21.60;49.00
35495;DHT22;75532;49.300;6.846;2024-02-15T05:07:56;21.60;49.00
35495;DHT22;75532;49.300;6.846;2024-02-15T05:10:58;21.60;49.00
35495;DHT22;75532;49.300;6.846;2024-02-15T05:13:58;21.70;49.00
35495;DHT22;75532;49.300;6.846;2024-02-15T05:16:59;21.60;49.00
35495;DHT22;75532;49.300;6.846;2024-02-15T05:20:00;21.60;49.00
35495;DHT22;75532;49.300;6.846;2024-02-15T05:23:01;21.60;49.00
35495;DHT22;75532;49.300;6.846;2024-02-15T05:26:01;21.60;49.00
35495;DHT22;75532;49.300;6.846;2024-02-15T05:29:03;21.70;49.10
35495;DHT22;75532;49.300;6.846;2024-02-15T05:32:05;21.60;49.00
35495;DHT22;75532;49.300;6.846;2024-02-15T05:35:07;21.70;49.00
35495;DHT22;75532;49.300;6.846;2024-02-15T05:38:08;21.70;49.00
35495;DHT22;75532;49.300;6.846;2024-02-15T05:41:12;21.70;48.90
35495;DHT22;75532;49.300;6.846;2024-02-15T05:44:12;21.70;49.00
35495;DHT22;75532;49.300;6.846;2024-02-15T05:47:14;21.70;49.00
35495;DHT22;75532;49.300;6.846;2024-02-15T05:50:15;21.70;48.90
35495;DHT22;75532;49.300;6.846;2024-02-15T05:53:15;21.70;48.90
35495;DHT22;75532;49.300;6.846;2024-02-15T05:56:16;21.70;48.90
35495;DHT22;75532;49.300;6.846;2024-02-15T05:59:17;21.70;48.90
35495;DHT22;75532;49.300;6.846;2024-02-15T06:02:20;21.70;49.00
35495;DHT22;75532;49.300;6.846;2024-02-15T06:05:21;21.70;48.90
35495;DHT22;75532;49.300;6.846;2024-02-15T06:08:22;21.70;49.00
35495;DHT22;75532;49.300;6.846;2024-02-15T06:11:23;21.60;48.90
35495;DHT22;75532;49.300;6.846;2024-02-15T06:14:24;21.70;49.00
35495;DHT22;75532;49.300;6.846;2024-02-15T06:17:25;21.70;49.00
35495;DHT22;75532;49.300;6.846;2024-02-15T06:20:25;21.70;48.90
35495;DHT22;75532;49.300;6.846;2024-02-15T06:23:30;21.70;49.00
35495;DHT22;75532;49.300;6.846;2024-02-15T06:26:31;21.70;48.80
35495;DHT22;75532;49.300;6.846;2024-02-15T06:29:34;21.70;49.00
35495;DHT22;75532;49.300;6.846;2024-02-15T06:32:53;21.70;48.90
35495;DHT22;75532;49.300;6.846;2024-02-15T06:36:12;21.70;49.00
35495;DHT22;75532;49.300;6.846;2024-02-15T06:39:32;21.70;48.90
35495;DHT22;75532;49.300;6.846;2024-02-15T06:42:41;21.70;48.90
35495;DHT22;75532;49.300;6.846;2024-02-15T06:45:41;21.80;48.80
35495;DHT22;75532;49.300;6.846;2024-02-15T06:48:50;21.80;48.90
35495;DHT22;75532;49.300;6.846;2024-02-15T06:51:52;21.80;48.80
35495;DHT22;75532;49.300;6.846;2024-02-15T06:54:52;21.80;48.70
35495;DHT22;75532;49.300;6.846;2024-02-15T06:57:54;21.80;48.70
35495;DHT22;75532;49.300;6.846;2024-02-15T07:00:55;21.80;48.60
35495;DHT22;75532;49.300;6.846;2024-02-15T07:03:56;21.80;48.70
35495;DHT22;75532;49.300;6.846;2024-02-15T07:06:56;21.80;48.70
35495;DHT22;75532;49.300;6.846;2024-02-15T07:09:58;21.80;48.70
35495;DHT22;75532;49.300;6.846;2024-02-15T07:12:59;21.80;48.80
35495;DHT22;75532;49.300;6.846;2024-02-15T07:16:00;21.80;48.70
35495;DHT22;75532;49.300;6.846;2024-02-15T07:19:01;21.80;48.70
35495;DHT22;75532;49.300;6.846;2024-02-15T07:22:03;21.80;48.90
35495;DHT22;75532;49.300;6.846;2024-02-15T07:25:04;21.70;48.60
35495;DHT22;75532;49.300;6.846;2024-02-15T07:28:05;21.80;48.70
35495;DHT22;75532;49.300;6.846;2024-02-15T07:31:06;21.80;48.70
35495;DHT22;75532;49.300;6.846;2024-02-15T07:34:07;21.80;48.60
35495;DHT22;75532;49.300;6.846;2024-02-15T07:37:08;21.70;48.60
35495;DHT22;75532;49.300;6.846;2024-02-15T07:40:09;21.80;48.60
35495;DHT22;75532;49.300;6.846;2024-02-15T07:43:10;21.70;48.50
35495;DHT22;75532;49.300;6.846;2024-02-15T07:46:14;21.80;48.60
35495;DHT22;75532;49.300;6.846;2024-02-15T07:49:16;21.80;48.60
35495;DHT22;75532;49.300;6.846;2024-02-15T07:52:20;21.80;48.60
35495;DHT22;75532;49.300;6.846;2024-02-15T07:55:20;21.80;48.70
35495;DHT22;75532;49.300;6.846;2024-02-15T07:58:21;21.80;48.80
35495;DHT22;75532;49.300;6.846;2024-02-15T08:01:22;21.80;49.30
35495;DHT22;75532;49.300;6.846;2024-02-15T08:04:23;21.80;49.90
35495;DHT22;75532;49.300;6.846;2024-02-15T08:07:25;21.80;49.50
35495;DHT22;75532;49.300;6.846;2024-02-15T08:10:25;21.80;49.20
35495;DHT22;75532;49.300;6.846;2024-02-15T08:13:28;21.80;49.10
35495;DHT22;75532;49.300;6.846;2024-02-15T08:16:29;21.80;49.00
35495;DHT22;75532;49.300;6.846;2024-02-15T08:19:30;21.80;49.00
35495;DHT22;75532;49.300;6.846;2024-02-15T08:22:31;21.80;48.90
35495;DHT22;75532;49.300;6.846;2024-02-15T08:25:31;21.80;49.40
35495;DHT22;75532;49.300;6.846;2024-02-15T08:28:32;21.80;49.40
35495;DHT22;75532;49.300;6.846;2024-02-15T08:31:33;21.80;49.20
35495;DHT22;75532;49.300;6.846;2024-02-15T08:34:36;21.70;49.70
35495;DHT22;75532;49.300;6.846;2024-02-15T08:37:37;21.80;51.20
35495;DHT22;75532;49.300;6.846;2024-02-15T08:40:38;21.80;50.70
35495;DHT22;75532;49.300;6.846;2024-02-15T08:43:39;21.80;51.20
35495;DHT22;75532;49.300;6.846;2024-02-15T08:46:41;21.80;51.10
35495;DHT22;75532;49.300;6.846;2024-02-15T08:49:42;21.80;51.20
35495;DHT22;75532;49.300;6.846;2024-02-15T08:52:42;21.90;50.90
35495;DHT22;75532;49.300;6.846;2024-02-15T08:55:43;21.80;50.90
35495;DHT22;75532;49.300;6.846;2024-02-15T08:58:43;21.80;50.80
35495;DHT22;75532;49.300;6.846;2024-02-15T09:01:44;21.80;50.70
35495;DHT22;75532;49.300;6.846;2024-02-15T09:04:46;21.80;50.80
35495;DHT22;75532;49.300;6.846;2024-02-15T09:07:47;21.80;50.80
35495;DHT22;75532;49.300;6.846;2024-02-15T09:10:49;21.80;50.50
35495;DHT22;75532;49.300;6.846;2024-02-15T09:13:50;21.80;50.50
35495;DHT22;75532;49.300;6.846;2024-02-15T09:16:51;21.80;50.60
35495;DHT22;75532;49.300;6.846;2024-02-15T09:19:52;21.80;50.70
35495;DHT22;75532;49.300;6.846;2024-02-15T09:22:54;21.80;50.60
35495;DHT22;75532;49.300;6.846;2024-02-15T09:25:54;21.80;50.10
35495;DHT22;75532;49.300;6.846;2024-02-15T09:28:55;21.80;49.90
35495;DHT22;75532;49.300;6.846;2024-02-15T09:31:56;21.80;49.80
35495;DHT22;75532;49.300;6.846;2024-02-15T09:34:57;21.80;50.30
35495;DHT22;75532;49.300;6.846;2024-02-15T09:37:58;21.80;51.00
35495;DHT22;75532;49.300;6.846;2024-02-15T09:40:59;21.80;51.30
35495;DHT22;75532;49.300;6.846;2024-02-15T09:44:00;21.90;51.50
35495;DHT22;75532;49.300;6.846;2024-02-15T09:47:06;21.80;51.40
35495;DHT22;75532;49.300;6.846;2024-02-15T09:50:14;21.80;50.70
35495;DHT22;75532;49.300;6.846;2024-02-15T09:53:15;21.80;50.10
35495;DHT22;75532;49.300;6.846;2024-02-15T09:56:16;21.70;50.50
35495;DHT22;75532;49.300;6.846;2024-02-15T09:59:16;21.70;50.50
35495;DHT22;75532;49.300;6.846;2024-02-15T10:02:18;21.80;51.00
35495;DHT22;75532;49.300;6.846;2024-02-15T10:05:19;21.80;51.20
35495;DHT22;75532;49.300;6.846;2024-02-15T10:08:20;21.80;51.00
35495;DHT22;75532;49.300;6.846;2024-02-15T10:11:23;21.70;51.10
35495;DHT22;75532;49.300;6.846;2024-02-15T10:14:29;21.80;52.30
35495;DHT22;75532;49.300;6.846;2024-02-15T10:17:30;21.90;52.90
35495;DHT22;75532;49.300;6.846;2024-02-15T10:20:36;21.80;52.20
35495;DHT22;75532;49.300;6.846;2024-02-15T10:23:38;21.80;52.80
35495;DHT22;75532;49.300;6.846;2024-02-15T10:26:39;21.80;52.60
35495;DHT22;75532;49.300;6.846;2024-02-15T10:29:39;21.80;52.30
35495;DHT22;75532;49.300;6.846;2024-02-15T10:32:40;21.80;52.30
35495;DHT22;75532;49.300;6.846;2024-02-15T10:35:41;21.80;53.60
35495;DHT22;75532;49.300;6.846;2024-02-15T10:38:42;21.90;53.30
35495;DHT22;75532;49.300;6.846;2024-02-15T10:41:50;21.90;53.90
35495;DHT22;75532;49.300;6.846;2024-02-15T10:44:51;21.90;54.00
35495;DHT22;75532;49.300;6.846;2024-02-15T10:47:53;21.90;53.30
35495;DHT22;75532;49.300;6.846;2024-02-15T10:50:55;21.80;52.70
35495;DHT22;75532;49.300;6.846;2024-02-15T10:54:02;21.80;52.60
35495;DHT22;75532;49.300;6.846;2024-02-15T10:57:06;21.80;52.20
35495;DHT22;75532;49.300;6.846;2024-02-15T11:00:07;21.80;52.10
35495;DHT22;75532;49.300;6.846;2024-02-15T11:03:15;21.70;52.10
35495;DHT22;75532;49.300;6.846;2024-02-15T11:06:21;21.80;52.20
35495;DHT22;75532;49.300;6.846;2024-02-15T11:09:23;21.80;52.20
35495;DHT22;75532;49.300;6.846;2024-02-15T11:12:24;21.80;52.00
35495;DHT22;75532;49.300;6.846;2024-02-15T11:18:52;21.80;52.40
35495;DHT22;75532;49.300;6.846;2024-02-15T11:21:56;21.80;52.20
35495;DHT22;75532;49.300;6.846;2024-02-15T11:25:00;21.80;52.20
35495;DHT22;75532;49.300;6.846;2024-02-15T11:31:53;21.80;52.50
35495;DHT22;75532;49.300;6.846;2024-02-15T11:35:11;21.90;53.30
35495;DHT22;75532;49.300;6.846;2024-02-15T11:38:27;21.90;52.70
35495;DHT22;75532;49.300;6.846;2024-02-15T11:41:28;21.80;52.80
35495;DHT22;75532;49.300;6.846;2024-02-15T11:44:29;21.90;52.80
35495;DHT22;75532;49.300;6.846;2024-02-15T11:47:32;21.90;52.20
35495;DHT22;75532;49.300;6.846;2024-02-15T11:50:37;21.80;52.80
35495;DHT22;75532;49.300;6.846;2024-02-15T11:53:38;21.90;52.90
35495;DHT22;75532;49.300;6.846;2024-02-15T11:56:53;21.80;52.20
35495;DHT22;75532;49.300;6.846;2024-02-15T12:00:24;21.90;52.80
35495;DHT22;75532;49.300;6.846;2024-02-15T12:03:44;21.80;52.70
35495;DHT22;75532;49.300;6.846;2024-02-15T12:07:03;21.80;52.40
35495;DHT22;75532;49.300;6.846;2024-02-15T12:10:22;21.80;53.10
35495;DHT22;75532;49.300;6.846;2024-02-15T12:13:41;21.80;53.30
35495;DHT22;75532;49.300;6.846;2024-02-15T12:17:10;21.90;53.50
35495;DHT22;75532;49.300;6.846;2024-02-15T12:20:29;21.90;53.20
35495;DHT22;75532;49.300;6.846;2024-02-15T12:23:32;21.90;53.40
35495;DHT22;75532;49.300;6.846;2024-02-15T12:26:34;21.90;53.40
35495;DHT22;75532;49.300;6.846;2024-02-15T12:29:35;21.90;53.30
35495;DHT22;75532;49.300;6.846;2024-02-15T12:32:36;21.90;52.90
35495;DHT22;75532;49.300;6.846;2024-02-15T12:35:36;21.90;53.10
35495;DHT22;75532;49.300;6.846;2024-02-15T12:38:38;21.90;53.10
35495;DHT22;75532;49.300;6.846;2024-02-15T12:41:39;21.80;52.80
35495;DHT22;75532;49.300;6.846;2024-02-15T12:44:44;21.80;53.00
35495;DHT22;75532;49.300;6.846;2024-02-15T12:47:49;21.80;52.30
35495;DHT22;75532;49.300;6.846;2024-02-15T12:50:50;21.80;53.00
35495;DHT22;75532;49.300;6.846;2024-02-15T12:53:51;21.80;52.60
35495;DHT22;75532;49.300;6.846;2024-02-15T12:57:07;21.80;52.60
35495;DHT22;75532;49.300;6.846;2024-02-15T13:00:10;21.80;52.50
35495;DHT22;75532;49.300;6.846;2024-02-15T13:03:13;21.80;52.60
35495;DHT22;75532;49.300;6.846;2024-02-15T13:06:18;21.80;52.90
35495;DHT22;75532;49.300;6.846;2024-02-15T13:09:24;21.80;52.90
35495;DHT22;75532;49.300;6.846;2024-02-15T13:12:24;21.70;52.90
35495;DHT22;75532;49.300;6.846;2024-02-15T13:15:25;21.70;53.20
35495;DHT22;75532;49.300;6.846;2024-02-15T13:18:33;21.70;52.90
35495;DHT22;75532;49.300;6.846;2024-02-15T13:21:33;21.80;52.70
35495;DHT22;75532;49.300;6.846;2024-02-15T13:24:34;21.80;52.80
35495;DHT22;75532;49.300;6.846;2024-02-15T13:27:39;21.80;52.90
35495;DHT22;75532;49.300;6.846;2024-02-15T13:30:39;21.80;53.00
35495;DHT22;75532;49.300;6.846;2024-02-15T13:33:41;21.90;53.10
35495;DHT22;75532;49.300;6.846;2024-02-15T13:36:42;21.90;53.00
35495;DHT22;75532;49.300;6.846;2024-02-15T13:39:42;21.80;53.00
35495;DHT22;75532;49.300;6.846;2024-02-15T13:42:47;21.80;53.40
35495;DHT22;75532;49.300;6.846;2024-02-15T13:45:53;21.70;52.70
35495;DHT22;75532;49.300;6.846;2024-02-15T13:48:54;21.70;52.50
35495;DHT22;75532;49.300;6.846;2024-02-15T13:51:54;21.70;52.50
35495;DHT22;75532;49.300;6.846;2024-02-15T13:54:55;21.70;52.50
35495;DHT22;75532;49.300;6.846;2024-02-15T13:57:56;21.70;52.40
35495;DHT22;75532;49.300;6.846;2024-02-15T14:00:57;21.70;52.10
35495;DHT22;75532;49.300;6.846;2024-02-15T14:03:59;21.80;52.10
35495;DHT22;75532;49.300;6.846;2024-02-15T14:07:00;21.80;52.00
35495;DHT22;75532;49.300;6.846;2024-02-15T14:10:02;21.80;52.00
35495;DHT22;75532;49.300;6.846;2024-02-15T14:13:04;21.80;52.00
35495;DHT22;75532;49.300;6.846;2024-02-15T14:16:11;21.80;51.80
35495;DHT22;75532;49.300;6.846;2024-02-15T14:19:13;21.80;51.80
35495;DHT22;75532;49.300;6.846;2024-02-15T14:22:13;21.80;52.30
35495;DHT22;75532;49.300;6.846;2024-02-15T14:25:16;21.80;52.20
35495;DHT22;75532;49.300;6.846;2024-02-15T14:28:17;21.80;52.10
35495;DHT22;75532;49.300;6.846;2024-02-15T14:31:18;21.80;51.90
35495;DHT22;75532;49.300;6.846;2024-02-15T14:34:37;21.80;51.70
35495;DHT22;75532;49.300;6.846;2024-02-15T14:37:39;21.90;53.00
35495;DHT22;75532;49.300;6.846;2024-02-15T14:40:45;21.90;52.50
35495;DHT22;75532;49.300;6.846;2024-02-15T14:43:52;21.90;52.00
35495;DHT22;75532;49.300;6.846;2024-02-15T14:46:54;21.80;51.80
35495;DHT22;75532;49.300;6.846;2024-02-15T14:49:55;21.90;51.90
35495;DHT22;75532;49.300;6.846;2024-02-15T14:52:56;21.90;51.90
35495;DHT22;75532;49.300;6.846;2024-02-15T14:55:57;21.90;51.70
35495;DHT22;75532;49.300;6.846;2024-02-15T14:58:58;21.80;51.60
35495;DHT22;75532;49.300;6.846;2024-02-15T15:01:58;21.90;51.70
35495;DHT22;75532;49.300;6.846;2024-02-15T15:05:08;21.90;51.60
35495;DHT22;75532;49.300;6.846;2024-02-15T15:08:28;21.80;51.50
35495;DHT22;75532;49.300;6.846;2024-02-15T15:11:47;21.80;51.70
35495;DHT22;75532;49.300;6.846;2024-02-15T15:15:06;21.80;51.50
35495;DHT22;75532;49.300;6.846;2024-02-15T15:18:08;21.80;51.50
35495;DHT22;75532;49.300;6.846;2024-02-15T15:21:08;21.90;51.30
35495;DHT22;75532;49.300;6.846;2024-02-15T15:24:09;21.80;51.70
35495;DHT22;75532;49.300;6.846;2024-02-15T15:27:10;21.80;52.00
35495;DHT22;75532;49.300;6.846;2024-02-15T15:30:11;21.90;52.80
35495;DHT22;75532;49.300;6.846;2024-02-15T15:33:11;21.90;52.60
35495;DHT22;75532;49.300;6.846;2024-02-15T15:36:13;21.90;52.60
35495;DHT22;75532;49.300;6.846;2024-02-15T15:39:16;21.90;52.30
35495;DHT22;75532;49.300;6.846;2024-02-15T15:42:16;21.90;52.00
35495;DHT22;75532;49.300;6.846;2024-02-15T15:45:18;21.90;51.70
35495;DHT22;75532;49.300;6.846;2024-02-15T15:48:19;21.90;51.70
35495;DHT22;75532;49.300;6.846;2024-02-15T15:51:19;21.90;51.70
35495;DHT22;75532;49.300;6.846;2024-02-15T15:54:20;21.90;51.50
35495;DHT22;75532;49.300;6.846;2024-02-15T15:57:21;21.90;51.50
35495;DHT22;75532;49.300;6.846;2024-02-15T16:00:22;21.90;51.70
35495;DHT22;75532;49.300;6.846;2024-02-15T16:03:23;21.90;52.50
35495;DHT22;75532;49.300;6.846;2024-02-15T16:06:23;21.90;51.90
35495;DHT22;75532;49.300;6.846;2024-02-15T16:09:24;21.90;51.60
35495;DHT22;75532;49.300;6.846;2024-02-15T16:12:25;21.90;51.60
35495;DHT22;75532;49.300;6.846;2024-02-15T16:15:25;21.90;51.70
35495;DHT22;75532;49.300;6.846;2024-02-15T16:18:26;21.90;51.30
35495;DHT22;75532;49.300;6.846;2024-02-15T16:21:26;21.90;51.30
35495;DHT22;75532;49.300;6.846;2024-02-15T16:24:27;21.80;51.30
35495;DHT22;75532;49.300;6.846;2024-02-15T16:27:28;21.80;51.30
35495;DHT22;75532;49.300;6.846;2024-02-15T16:30:28;21.80;51.20
35495;DHT22;75532;49.300;6.846;2024-02-15T16:33:29;21.80;51.30
35495;DHT22;75532;49.300;6.846;2024-02-15T16:36:29;21.80;51.20
35495;DHT22;75532;49.300;6.846;2024-02-15T16:39:30;21.90;51.30
35495;DHT22;75532;49.300;6.846;2024-02-15T16:42:30;21.80;51.30
35495;DHT22;75532;49.300;6.846;2024-02-15T16:45:33;21.80;51.20
35495;DHT22;75532;49.300;6.846;2024-02-15T16:48:33;21.80;51.30
35495;DHT22;75532;49.300;6.846;2024-02-15T16:51:34;21.90;51.30
35495;DHT22;75532;49.300;6.846;2024-02-15T16:54:35;21.90;51.50
35495;DHT22;75532;49.300;6.846;2024-02-15T16:57:36;21.80;51.30
35495;DHT22;75532;49.300;6.846;2024-02-15T17:00:37;21.90;51.30
35495;DHT22;75532;49.300;6.846;2024-02-15T17:03:38;21.90;51.30
35495;DHT22;75532;49.300;6.846;2024-02-15T17:06:39;21.90;51.30
35495;DHT22;75532;49.300;6.846;2024-02-15T17:09:40;21.80;51.10
35495;DHT22;75532;49.300;6.846;2024-02-15T17:12:40;21.90;51.20
35495;DHT22;75532;49.300;6.846;2024-02-15T17:15:41;21.80;51.20
35495;DHT22;75532;49.300;6.846;2024-02-15T17:18:41;21.80;51.30
35495;DHT22;75532;49.300;6.846;2024-02-15T17:21:42;21.80;51.20
35495;DHT22;75532;49.300;6.846;2024-02-15T17:24:43;21.80;51.50
35495;DHT22;75532;49.300;6.846;2024-02-15T17:27:44;21.80;51.20
35495;DHT22;75532;49.300;6.846;2024-02-15T17:30:44;21.90;51.60
35495;DHT22;75532;49.300;6.846;2024-02-15T17:33:48;21.90;51.70
35495;DHT22;75532;49.300;6.846;2024-02-15T17:36:48;21.80;51.30
35495;DHT22;75532;49.300;6.846;2024-02-15T17:39:49;21.80;51.60
35495;DHT22;75532;49.300;6.846;2024-02-15T17:42:50;21.80;51.50
35495;DHT22;75532;49.300;6.846;2024-02-15T17:45:50;21.80;51.50
35495;DHT22;75532;49.300;6.846;2024-02-15T17:48:51;21.80;51.70
35495;DHT22;75532;49.300;6.846;2024-02-15T17:51:51;21.80;51.60
35495;DHT22;75532;49.300;6.846;2024-02-15T17:54:52;21.90;51.70
35495;DHT22;75532;49.300;6.846;2024-02-15T17:57:52;21.90;51.70
35495;DHT22;75532;49.300;6.846;2024-02-15T18:00:53;21.90;51.40
35495;DHT22;75532;49.300;6.846;2024-02-15T18:03:54;21.90;51.50
35495;DHT22;75532;49.300;6.846;2024-02-15T18:06:57;21.80;51.30
35495;DHT22;75532;49.300;6.846;2024-02-15T18:09:58;21.80;52.00
35495;DHT22;75532;49.300;6.846;2024-02-15T18:13:03;21.80;51.40
35495;DHT22;75532;49.300;6.846;2024-02-15T18:16:04;21.80;51.40
35495;DHT22;75532;49.300;6.846;2024-02-15T18:19:04;21.80;51.40
35495;DHT22;75532;49.300;6.846;2024-02-15T18:22:05;21.80;51.50
35495;DHT22;75532;49.300;6.846;2024-02-15T18:25:09;21.80;51.40
35495;DHT22;75532;49.300;6.846;2024-02-15T18:28:10;21.80;51.60
35495;DHT22;75532;49.300;6.846;2024-02-15T18:31:13;21.80;51.50
35495;DHT22;75532;49.300;6.846;2024-02-15T18:34:14;21.90;51.70
35495;DHT22;75532;49.300;6.846;2024-02-15T18:37:14;21.90;51.50
35495;DHT22;75532;49.300;6.846;2024-02-15T18:40:15;21.90;51.80
35495;DHT22;75532;49.300;6.846;2024-02-15T18:43:16;21.90;51.80
35495;DHT22;75532;49.300;6.846;2024-02-15T18:46:17;21.90;51.50
35495;DHT22;75532;49.300;6.846;2024-02-15T18:49:17;21.90;51.40
35495;DHT22;75532;49.300;6.846;2024-02-15T18:52:18;21.80;51.50
35495;DHT22;75532;49.300;6.846;2024-02-15T18:55:18;21.80;51.30
35495;DHT22;75532;49.300;6.846;2024-02-15T18:58:20;21.80;51.60
35495;DHT22;75532;49.300;6.846;2024-02-15T19:01:22;21.80;51.50
35495;DHT22;75532;49.300;6.846;2024-02-15T19:04:25;21.80;51.50
35495;DHT22;75532;49.300;6.846;2024-02-15T19:07:26;21.80;51.50
35495;DHT22;75532;49.300;6.846;2024-02-15T19:10:26;21.80;51.20
35495;DHT22;75532;49.300;6.846;2024-02-15T19:13:27;21.80;51.30
35495;DHT22;75532;49.300;6.846;2024-02-15T19:16:30;21.80;51.20
35495;DHT22;75532;49.300;6.846;2024-02-15T19:19:32;21.80;51.30
35495;DHT22;75532;49.300;6.846;2024-02-15T19:22:33;21.80;51.20
35495;DHT22;75532;49.300;6.846;2024-02-15T19:25:34;21.80;51.20